sensor_id;sensor_type;location;lat;lon;timestamp;P1;durP1;ratioP1;P2;durP2;ratioP2
35530;SDS011;21637;53.352;-6.356;2023-07-09T00:02:20;5.68;;;2.47;;
35530;SDS011;21637;53.352;-6.356;2023-07-09T00:04:47;9.38;;;2.20;;
35530;SDS011;21637;53.352;-6.356;2023-07-09T00:07:15;8.18;;;2.00;;
35530;SDS011;21637;53.352;-6.356;2023-07-09T00:09:44;9.57;;;2.13;;
35530;SDS011;21637;53.352;-6.356;2023-07-09T00:12:14;7.38;;;2.17;;
35530;SDS011;21637;53.352;-6.356;2023-07-09T00:14:40;6.25;;;2.33;;
35530;SDS011;21637;53.352;-6.356;2023-07-09T00:17:10;9.23;;;3.15;;
35530;SDS011;21637;53.352;-6.356;2023-07-09T00:19:38;12.93;;;3.00;;
35530;SDS011;21637;53.352;-6.356;2023-07-09T00:22:07;8.90;;;2.47;;
35530;SDS011;21637;53.352;-6.356;2023-07-09T00:24:41;4.90;;;2.45;;
35530;SDS011;21637;53.352;-6.356;2023-07-09T00:27:12;7.97;;;2.20;;
35530;SDS011;21637;53.352;-6.356;2023-07-09T00:29:40;8.25;;;2.35;;
35530;SDS011;21637;53.352;-6.356;2023-07-09T00:32:13;6.25;;;2.30;;
35530;SDS011;21637;53.352;-6.356;2023-07-09T00:34:41;11.63;;;2.90;;
35530;SDS011;21637;53.352;-6.356;2023-07-09T00:37:13;7.50;;;2.13;;
35530;SDS011;21637;53.352;-6.356;2023-07-09T00:39:43;6.82;;;1.98;;
35530;SDS011;21637;53.352;-6.356;2023-07-09T00:42:16;11.95;;;2.80;;
35530;SDS011;21637;53.352;-6.356;2023-07-09T00:44:49;8.55;;;2.45;;
35530;SDS011;21637;53.352;-6.356;2023-07-09T00:47:23;10.80;;;2.50;;
35530;SDS011;21637;53.352;-6.356;2023-07-09T00:50:01;8.55;;;2.58;;
35530;SDS011;21637;53.352;-6.356;2023-07-09T00:52:42;14.40;;;2.72;;
35530;SDS011;21637;53.352;-6.356;2023-07-09T00:55:15;8.02;;;3.13;;
35530;SDS011;21637;53.352;-6.356;2023-07-09T00:57:46;10.93;;;2.30;;
35530;SDS011;21637;53.352;-6.356;2023-07-09T01:00:21;6.90;;;2.55;;
35530;SDS011;21637;53.352;-6.356;2023-07-09T01:02:50;10.18;;;2.40;;
35530;SDS011;21637;53.352;-6.356;2023-07-09T01:05:16;9.55;;;2.20;;
35530;SDS011;21637;53.352;-6.356;2023-07-09T01:07:44;10.13;;;2.28;;
35530;SDS011;21637;53.352;-6.356;2023-07-09T01:10:11;5.75;;;1.50;;
35530;SDS011;21637;53.352;-6.356;2023-07-09T01:12:41;6.28;;;1.70;;
35530;SDS011;21637;53.352;-6.356;2023-07-09T01:15:07;6.57;;;1.70;;
35530;SDS011;21637;53.352;-6.356;2023-07-09T01:17:33;10.93;;;2.20;;
35530;SDS011;21637;53.352;-6.356;2023-07-09T01:19:59;5.95;;;2.22;;
35530;SDS011;21637;53.352;-6.356;2023-07-09T01:22:25;5.97;;;2.28;;
35530;SDS011;21637;53.352;-6.356;2023-07-09T01:27:19;11.55;;;2.22;;
35530;SDS011;21637;53.352;-6.356;2023-07-09T01:29:54;8.18;;;1.80;;
35530;SDS011;21637;53.352;-6.356;2023-07-09T01:32:20;6.53;;;2.00;;
35530;SDS011;21637;53.352;-6.356;2023-07-09T01:34:47;5.57;;;1.85;;
35530;SDS011;21637;53.352;-6.356;2023-07-09T01:37:15;8.05;;;2.13;;
35530;SDS011;21637;53.352;-6.356;2023-07-09T01:39:49;8.02;;;2.63;;
35530;SDS011;21637;53.352;-6.356;2023-07-09T01:42:16;12.02;;;2.70;;
35530;SDS011;21637;53.352;-6.356;2023-07-09T01:44:43;11.77;;;2.78;;
35530;SDS011;21637;53.352;-6.356;2023-07-09T01:47:11;5.72;;;2.30;;
35530;SDS011;21637;53.352;-6.356;2023-07-09T01:49:37;7.30;;;2.03;;
35530;SDS011;21637;53.352;-6.356;2023-07-09T01:52:05;13.57;;;2.75;;
35530;SDS011;21637;53.352;-6.356;2023-07-09T01:54:33;5.55;;;1.90;;
35530;SDS011;21637;53.352;-6.356;2023-07-09T01:57:13;10.45;;;2.78;;
35530;SDS011;21637;53.352;-6.356;2023-07-09T01:59:41;4.82;;;1.90;;
35530;SDS011;21637;53.352;-6.356;2023-07-09T02:02:08;6.30;;;2.30;;
35530;SDS011;21637;53.352;-6.356;2023-07-09T02:04:33;12.88;;;3.05;;
35530;SDS011;21637;53.352;-6.356;2023-07-09T02:06:59;15.32;;;3.08;;
35530;SDS011;21637;53.352;-6.356;2023-07-09T02:09:25;6.93;;;2.58;;
35530;SDS011;21637;53.352;-6.356;2023-07-09T02:11:50;11.60;;;2.75;;
35530;SDS011;21637;53.352;-6.356;2023-07-09T02:14:16;8.32;;;2.63;;
35530;SDS011;21637;53.352;-6.356;2023-07-09T02:16:42;11.55;;;3.30;;
35530;SDS011;21637;53.352;-6.356;2023-07-09T02:19:08;13.35;;;3.60;;
35530;SDS011;21637;53.352;-6.356;2023-07-09T02:21:34;7.57;;;3.28;;
35530;SDS011;21637;53.352;-6.356;2023-07-09T02:24:00;11.68;;;3.00;;
35530;SDS011;21637;53.352;-6.356;2023-07-09T02:26:25;8.57;;;3.05;;
35530;SDS011;21637;53.352;-6.356;2023-07-09T02:28:51;9.57;;;2.80;;
35530;SDS011;21637;53.352;-6.356;2023-07-09T02:31:17;8.68;;;2.50;;
35530;SDS011;21637;53.352;-6.356;2023-07-09T02:33:44;10.07;;;2.72;;
35530;SDS011;21637;53.352;-6.356;2023-07-09T02:36:10;11.98;;;2.70;;
35530;SDS011;21637;53.352;-6.356;2023-07-09T02:38:35;14.77;;;3.20;;
35530;SDS011;21637;53.352;-6.356;2023-07-09T02:41:02;10.93;;;3.38;;
35530;SDS011;21637;53.352;-6.356;2023-07-09T02:43:27;11.57;;;2.92;;
35530;SDS011;21637;53.352;-6.356;2023-07-09T02:45:53;8.57;;;2.80;;
35530;SDS011;21637;53.352;-6.356;2023-07-09T02:48:19;6.78;;;2.15;;
35530;SDS011;21637;53.352;-6.356;2023-07-09T02:50:44;11.48;;;2.88;;
35530;SDS011;21637;53.352;-6.356;2023-07-09T02:53:10;10.65;;;2.30;;
35530;SDS011;21637;53.352;-6.356;2023-07-09T02:55:36;7.05;;;2.22;;
35530;SDS011;21637;53.352;-6.356;2023-07-09T02:58:01;12.10;;;2.88;;
35530;SDS011;21637;53.352;-6.356;2023-07-09T03:00:27;8.23;;;3.28;;
35530;SDS011;21637;53.352;-6.356;2023-07-09T03:02:53;7.82;;;2.85;;
35530;SDS011;21637;53.352;-6.356;2023-07-09T03:05:19;9.68;;;2.97;;
35530;SDS011;21637;53.352;-6.356;2023-07-09T03:07:45;9.88;;;2.78;;
35530;SDS011;21637;53.352;-6.356;2023-07-09T03:10:10;14.68;;;3.00;;
35530;SDS011;21637;53.352;-6.356;2023-07-09T03:12:36;14.82;;;2.70;;
35530;SDS011;21637;53.352;-6.356;2023-07-09T03:15:02;6.03;;;2.50;;
35530;SDS011;21637;53.352;-6.356;2023-07-09T03:17:27;7.13;;;2.35;;
35530;SDS011;21637;53.352;-6.356;2023-07-09T03:19:54;7.35;;;2.05;;
35530;SDS011;21637;53.352;-6.356;2023-07-09T03:22:19;8.68;;;2.60;;
35530;SDS011;21637;53.352;-6.356;2023-07-09T03:24:45;10.25;;;2.60;;
35530;SDS011;21637;53.352;-6.356;2023-07-09T03:27:11;8.45;;;2.40;;
35530;SDS011;21637;53.352;-6.356;2023-07-09T03:29:36;8.38;;;2.72;;
35530;SDS011;21637;53.352;-6.356;2023-07-09T03:32:02;12.30;;;2.78;;
35530;SDS011;21637;53.352;-6.356;2023-07-09T03:34:28;12.80;;;2.88;;
35530;SDS011;21637;53.352;-6.356;2023-07-09T03:36:54;18.08;;;3.30;;
35530;SDS011;21637;53.352;-6.356;2023-07-09T03:39:19;11.13;;;2.95;;
35530;SDS011;21637;53.352;-6.356;2023-07-09T03:41:45;12.68;;;3.20;;
35530;SDS011;21637;53.352;-6.356;2023-07-09T03:44:11;12.10;;;3.15;;
35530;SDS011;21637;53.352;-6.356;2023-07-09T03:46:38;10.23;;;3.13;;
35530;SDS011;21637;53.352;-6.356;2023-07-09T03:49:03;10.30;;;2.80;;
35530;SDS011;21637;53.352;-6.356;2023-07-09T03:51:29;8.05;;;2.53;;
35530;SDS011;21637;53.352;-6.356;2023-07-09T03:53:55;12.30;;;2.72;;
35530;SDS011;21637;53.352;-6.356;2023-07-09T03:56:20;14.77;;;2.88;;
35530;SDS011;21637;53.352;-6.356;2023-07-09T03:58:46;10.07;;;2.80;;
35530;SDS011;21637;53.352;-6.356;2023-07-09T04:01:12;10.90;;;2.72;;
35530;SDS011;21637;53.352;-6.356;2023-07-09T04:03:38;10.93;;;3.08;;
35530;SDS011;21637;53.352;-6.356;2023-07-09T04:06:03;8.55;;;2.58;;
35530;SDS011;21637;53.352;-6.356;2023-07-09T04:08:29;18.70;;;3.28;;
35530;SDS011;21637;53.352;-6.356;2023-07-09T04:10:58;11.65;;;3.10;;
35530;SDS011;21637;53.352;-6.356;2023-07-09T04:13:24;12.70;;;3.47;;
35530;SDS011;21637;53.352;-6.356;2023-07-09T04:15:52;13.95;;;3.47;;
35530;SDS011;21637;53.352;-6.356;2023-07-09T04:18:18;15.32;;;3.33;;
35530;SDS011;21637;53.352;-6.356;2023-07-09T04:20:46;13.63;;;3.78;;
35530;SDS011;21637;53.352;-6.356;2023-07-09T04:23:14;13.40;;;2.95;;
35530;SDS011;21637;53.352;-6.356;2023-07-09T04:25:40;11.20;;;3.30;;
35530;SDS011;21637;53.352;-6.356;2023-07-09T04:28:06;9.85;;;2.92;;
35530;SDS011;21637;53.352;-6.356;2023-07-09T04:30:32;10.98;;;3.45;;
35530;SDS011;21637;53.352;-6.356;2023-07-09T04:32:58;13.75;;;3.28;;
35530;SDS011;21637;53.352;-6.356;2023-07-09T04:35:24;16.05;;;3.78;;
35530;SDS011;21637;53.352;-6.356;2023-07-09T04:37:49;14.63;;;3.60;;
35530;SDS011;21637;53.352;-6.356;2023-07-09T04:40:16;12.57;;;3.30;;
35530;SDS011;21637;53.352;-6.356;2023-07-09T04:42:44;13.63;;;3.35;;
35530;SDS011;21637;53.352;-6.356;2023-07-09T04:45:10;17.48;;;3.67;;
35530;SDS011;21637;53.352;-6.356;2023-07-09T04:47:37;9.35;;;2.95;;
35530;SDS011;21637;53.352;-6.356;2023-07-09T04:50:04;7.38;;;2.83;;
35530;SDS011;21637;53.352;-6.356;2023-07-09T04:52:31;8.65;;;2.90;;
35530;SDS011;21637;53.352;-6.356;2023-07-09T04:54:57;14.48;;;3.03;;
35530;SDS011;21637;53.352;-6.356;2023-07-09T04:57:23;10.93;;;3.22;;
35530;SDS011;21637;53.352;-6.356;2023-07-09T04:59:49;10.02;;;3.45;;
35530;SDS011;21637;53.352;-6.356;2023-07-09T05:02:15;9.68;;;3.17;;
35530;SDS011;21637;53.352;-6.356;2023-07-09T05:04:41;9.93;;;3.30;;
35530;SDS011;21637;53.352;-6.356;2023-07-09T05:07:06;13.43;;;3.17;;
35530;SDS011;21637;53.352;-6.356;2023-07-09T05:09:32;13.65;;;2.92;;
35530;SDS011;21637;53.352;-6.356;2023-07-09T05:11:59;9.70;;;3.10;;
35530;SDS011;21637;53.352;-6.356;2023-07-09T05:14:26;12.07;;;3.17;;
35530;SDS011;21637;53.352;-6.356;2023-07-09T05:16:52;15.77;;;3.72;;
35530;SDS011;21637;53.352;-6.356;2023-07-09T05:19:18;10.43;;;3.05;;
35530;SDS011;21637;53.352;-6.356;2023-07-09T05:21:44;13.10;;;3.38;;
35530;SDS011;21637;53.352;-6.356;2023-07-09T05:24:10;13.75;;;3.20;;
35530;SDS011;21637;53.352;-6.356;2023-07-09T05:26:36;14.18;;;3.42;;
35530;SDS011;21637;53.352;-6.356;2023-07-09T05:29:02;16.63;;;3.88;;
35530;SDS011;21637;53.352;-6.356;2023-07-09T05:31:29;12.73;;;3.85;;
35530;SDS011;21637;53.352;-6.356;2023-07-09T05:33:55;13.15;;;3.63;;
35530;SDS011;21637;53.352;-6.356;2023-07-09T05:36:21;8.85;;;3.22;;
35530;SDS011;21637;53.352;-6.356;2023-07-09T05:38:46;10.50;;;3.20;;
35530;SDS011;21637;53.352;-6.356;2023-07-09T05:41:12;10.40;;;3.22;;
35530;SDS011;21637;53.352;-6.356;2023-07-09T05:43:41;12.48;;;3.33;;
35530;SDS011;21637;53.352;-6.356;2023-07-09T05:46:08;12.95;;;3.28;;
35530;SDS011;21637;53.352;-6.356;2023-07-09T05:48:34;15.85;;;3.90;;
35530;SDS011;21637;53.352;-6.356;2023-07-09T05:51:00;16.25;;;3.55;;
35530;SDS011;21637;53.352;-6.356;2023-07-09T05:53:25;10.68;;;2.75;;
35530;SDS011;21637;53.352;-6.356;2023-07-09T05:55:54;12.27;;;2.60;;
35530;SDS011;21637;53.352;-6.356;2023-07-09T05:58:21;8.88;;;2.92;;
35530;SDS011;21637;53.352;-6.356;2023-07-09T06:00:51;12.75;;;3.25;;
35530;SDS011;21637;53.352;-6.356;2023-07-09T06:03:19;13.20;;;4.07;;
35530;SDS011;21637;53.352;-6.356;2023-07-09T06:05:46;14.60;;;2.88;;
35530;SDS011;21637;53.352;-6.356;2023-07-09T06:08:15;16.10;;;3.20;;
35530;SDS011;21637;53.352;-6.356;2023-07-09T06:13:36;13.05;;;2.85;;
35530;SDS011;21637;53.352;-6.356;2023-07-09T06:16:02;12.27;;;3.35;;
35530;SDS011;21637;53.352;-6.356;2023-07-09T06:18:28;12.75;;;3.33;;
35530;SDS011;21637;53.352;-6.356;2023-07-09T06:20:55;9.15;;;2.65;;
35530;SDS011;21637;53.352;-6.356;2023-07-09T06:23:23;14.80;;;3.00;;
35530;SDS011;21637;53.352;-6.356;2023-07-09T06:25:49;13.57;;;3.15;;
35530;SDS011;21637;53.352;-6.356;2023-07-09T06:28:16;12.60;;;2.85;;
35530;SDS011;21637;53.352;-6.356;2023-07-09T06:30:44;14.20;;;2.95;;
35530;SDS011;21637;53.352;-6.356;2023-07-09T06:33:11;10.07;;;2.42;;
35530;SDS011;21637;53.352;-6.356;2023-07-09T06:35:38;11.88;;;2.83;;
35530;SDS011;21637;53.352;-6.356;2023-07-09T06:38:04;11.68;;;2.83;;
35530;SDS011;21637;53.352;-6.356;2023-07-09T06:40:31;12.20;;;3.17;;
35530;SDS011;21637;53.352;-6.356;2023-07-09T06:42:57;9.70;;;2.40;;
35530;SDS011;21637;53.352;-6.356;2023-07-09T06:45:23;11.93;;;2.70;;
35530;SDS011;21637;53.352;-6.356;2023-07-09T06:47:49;11.30;;;2.83;;
35530;SDS011;21637;53.352;-6.356;2023-07-09T06:50:15;13.32;;;3.22;;
35530;SDS011;21637;53.352;-6.356;2023-07-09T06:52:40;13.20;;;2.47;;
35530;SDS011;21637;53.352;-6.356;2023-07-09T06:55:07;12.68;;;2.75;;
35530;SDS011;21637;53.352;-6.356;2023-07-09T06:57:33;10.18;;;2.58;;
35530;SDS011;21637;53.352;-6.356;2023-07-09T06:59:59;15.02;;;2.90;;
35530;SDS011;21637;53.352;-6.356;2023-07-09T07:02:25;16.45;;;2.78;;
35530;SDS011;21637;53.352;-6.356;2023-07-09T07:04:51;10.00;;;2.88;;
35530;SDS011;21637;53.352;-6.356;2023-07-09T07:07:16;18.55;;;3.20;;
35530;SDS011;21637;53.352;-6.356;2023-07-09T07:09:42;12.73;;;2.92;;
35530;SDS011;21637;53.352;-6.356;2023-07-09T07:12:08;16.35;;;2.90;;
35530;SDS011;21637;53.352;-6.356;2023-07-09T07:14:34;13.50;;;3.17;;
35530;SDS011;21637;53.352;-6.356;2023-07-09T07:17:00;15.27;;;2.75;;
35530;SDS011;21637;53.352;-6.356;2023-07-09T07:19:26;8.77;;;2.47;;
35530;SDS011;21637;53.352;-6.356;2023-07-09T07:21:52;20.05;;;3.33;;
35530;SDS011;21637;53.352;-6.356;2023-07-09T07:24:18;15.02;;;2.85;;
35530;SDS011;21637;53.352;-6.356;2023-07-09T07:26:44;14.18;;;3.60;;
35530;SDS011;21637;53.352;-6.356;2023-07-09T07:29:09;15.27;;;3.03;;
35530;SDS011;21637;53.352;-6.356;2023-07-09T07:31:35;11.88;;;2.50;;
35530;SDS011;21637;53.352;-6.356;2023-07-09T07:34:01;8.57;;;2.65;;
35530;SDS011;21637;53.352;-6.356;2023-07-09T07:36:26;13.27;;;2.92;;
35530;SDS011;21637;53.352;-6.356;2023-07-09T07:38:52;12.70;;;2.63;;
35530;SDS011;21637;53.352;-6.356;2023-07-09T07:41:18;11.55;;;2.75;;
35530;SDS011;21637;53.352;-6.356;2023-07-09T07:43:43;13.30;;;2.85;;
35530;SDS011;21637;53.352;-6.356;2023-07-09T07:46:09;11.45;;;2.78;;
35530;SDS011;21637;53.352;-6.356;2023-07-09T07:48:35;17.90;;;3.20;;
35530;SDS011;21637;53.352;-6.356;2023-07-09T07:51:01;17.52;;;2.67;;
35530;SDS011;21637;53.352;-6.356;2023-07-09T07:53:29;10.98;;;2.70;;
35530;SDS011;21637;53.352;-6.356;2023-07-09T07:55:55;15.30;;;3.15;;
35530;SDS011;21637;53.352;-6.356;2023-07-09T07:58:22;13.75;;;2.95;;
35530;SDS011;21637;53.352;-6.356;2023-07-09T08:00:48;11.57;;;2.80;;
35530;SDS011;21637;53.352;-6.356;2023-07-09T08:03:14;16.30;;;3.33;;
35530;SDS011;21637;53.352;-6.356;2023-07-09T08:05:39;15.50;;;2.83;;
35530;SDS011;21637;53.352;-6.356;2023-07-09T08:08:05;11.45;;;3.00;;
35530;SDS011;21637;53.352;-6.356;2023-07-09T08:10:31;11.45;;;2.78;;
35530;SDS011;21637;53.352;-6.356;2023-07-09T08:12:56;14.73;;;3.70;;
35530;SDS011;21637;53.352;-6.356;2023-07-09T08:15:23;16.48;;;3.10;;
35530;SDS011;21637;53.352;-6.356;2023-07-09T08:17:49;11.25;;;3.05;;
35530;SDS011;21637;53.352;-6.356;2023-07-09T08:20:15;18.30;;;3.70;;
35530;SDS011;21637;53.352;-6.356;2023-07-09T08:22:41;17.55;;;3.72;;
35530;SDS011;21637;53.352;-6.356;2023-07-09T08:25:08;15.50;;;3.90;;
35530;SDS011;21637;53.352;-6.356;2023-07-09T08:27:33;12.18;;;3.15;;
35530;SDS011;21637;53.352;-6.356;2023-07-09T08:29:59;15.52;;;3.28;;
35530;SDS011;21637;53.352;-6.356;2023-07-09T08:32:25;17.10;;;4.05;;
35530;SDS011;21637;53.352;-6.356;2023-07-09T08:34:51;18.02;;;3.20;;
35530;SDS011;21637;53.352;-6.356;2023-07-09T08:37:16;16.98;;;3.60;;
35530;SDS011;21637;53.352;-6.356;2023-07-09T08:39:42;10.70;;;3.00;;
35530;SDS011;21637;53.352;-6.356;2023-07-09T08:42:09;15.85;;;3.45;;
35530;SDS011;21637;53.352;-6.356;2023-07-09T08:50:10;12.32;;;2.40;;
35530;SDS011;21637;53.352;-6.356;2023-07-09T08:52:43;18.52;;;2.88;;
35530;SDS011;21637;53.352;-6.356;2023-07-09T08:55:20;12.35;;;3.60;;
35530;SDS011;21637;53.352;-6.356;2023-07-09T08:57:49;9.50;;;2.70;;
35530;SDS011;21637;53.352;-6.356;2023-07-09T09:00:33;9.02;;;1.90;;
35530;SDS011;21637;53.352;-6.356;2023-07-09T09:03:11;8.23;;;1.77;;
35530;SDS011;21637;53.352;-6.356;2023-07-09T09:05:43;9.13;;;2.40;;
35530;SDS011;21637;53.352;-6.356;2023-07-09T09:08:20;9.57;;;2.60;;
35530;SDS011;21637;53.352;-6.356;2023-07-09T09:11:21;8.35;;;2.00;;
35530;SDS011;21637;53.352;-6.356;2023-07-09T09:14:16;4.75;;;1.63;;
35530;SDS011;21637;53.352;-6.356;2023-07-09T09:16:54;4.82;;;1.77;;
35530;SDS011;21637;53.352;-6.356;2023-07-09T09:19:37;5.78;;;1.70;;
35530;SDS011;21637;53.352;-6.356;2023-07-09T09:22:13;6.13;;;1.33;;
35530;SDS011;21637;53.352;-6.356;2023-07-09T09:27:19;5.88;;;1.27;;
35530;SDS011;21637;53.352;-6.356;2023-07-09T09:29:45;3.28;;;1.08;;
35530;SDS011;21637;53.352;-6.356;2023-07-09T09:32:21;4.57;;;1.30;;
35530;SDS011;21637;53.352;-6.356;2023-07-09T09:34:51;4.97;;;1.63;;
35530;SDS011;21637;53.352;-6.356;2023-07-09T09:37:51;3.72;;;1.27;;
35530;SDS011;21637;53.352;-6.356;2023-07-09T09:40:14;6.65;;;2.05;;
35530;SDS011;21637;53.352;-6.356;2023-07-09T09:42:43;6.32;;;1.58;;
35530;SDS011;21637;53.352;-6.356;2023-07-09T09:45:13;7.95;;;1.52;;
35530;SDS011;21637;53.352;-6.356;2023-07-09T09:47:42;6.95;;;1.63;;
35530;SDS011;21637;53.352;-6.356;2023-07-09T09:50:18;7.18;;;2.17;;
35530;SDS011;21637;53.352;-6.356;2023-07-09T09:52:46;5.32;;;1.40;;
35530;SDS011;21637;53.352;-6.356;2023-07-09T09:57:52;6.80;;;1.63;;
35530;SDS011;21637;53.352;-6.356;2023-07-09T10:00:20;6.75;;;2.35;;
35530;SDS011;21637;53.352;-6.356;2023-07-09T10:02:48;10.35;;;1.90;;
35530;SDS011;21637;53.352;-6.356;2023-07-09T10:05:14;8.30;;;2.03;;
35530;SDS011;21637;53.352;-6.356;2023-07-09T10:08:00;6.32;;;1.90;;
35530;SDS011;21637;53.352;-6.356;2023-07-09T10:10:40;4.78;;;1.90;;
35530;SDS011;21637;53.352;-6.356;2023-07-09T10:18:39;4.78;;;1.15;;
35530;SDS011;21637;53.352;-6.356;2023-07-09T10:21:31;3.05;;;1.05;;
35530;SDS011;21637;53.352;-6.356;2023-07-09T10:24:17;6.20;;;1.42;;
35530;SDS011;21637;53.352;-6.356;2023-07-09T10:35:30;4.40;;;1.20;;
35530;SDS011;21637;53.352;-6.356;2023-07-09T10:41:00;2.75;;;1.08;;
35530;SDS011;21637;53.352;-6.356;2023-07-09T10:46:02;6.18;;;1.63;;
35530;SDS011;21637;53.352;-6.356;2023-07-09T10:48:36;6.68;;;2.10;;
35530;SDS011;21637;53.352;-6.356;2023-07-09T10:51:08;7.53;;;1.67;;
35530;SDS011;21637;53.352;-6.356;2023-07-09T10:53:47;8.02;;;1.70;;
35530;SDS011;21637;53.352;-6.356;2023-07-09T10:56:26;2.72;;;1.20;;
35530;SDS011;21637;53.352;-6.356;2023-07-09T11:01:46;7.35;;;1.63;;
35530;SDS011;21637;53.352;-6.356;2023-07-09T11:04:34;7.57;;;1.77;;
35530;SDS011;21637;53.352;-6.356;2023-07-09T11:07:12;7.28;;;1.58;;
35530;SDS011;21637;53.352;-6.356;2023-07-09T11:09:43;7.25;;;1.52;;
35530;SDS011;21637;53.352;-6.356;2023-07-09T11:12:30;5.25;;;1.55;;
35530;SDS011;21637;53.352;-6.356;2023-07-09T11:17:30;7.38;;;1.30;;
35530;SDS011;21637;53.352;-6.356;2023-07-09T11:19:58;6.45;;;1.10;;
35530;SDS011;21637;53.352;-6.356;2023-07-09T11:22:38;4.88;;;1.17;;
35530;SDS011;21637;53.352;-6.356;2023-07-09T11:25:09;6.78;;;1.20;;
35530;SDS011;21637;53.352;-6.356;2023-07-09T11:27:53;3.13;;;1.00;;
35530;SDS011;21637;53.352;-6.356;2023-07-09T11:30:27;4.13;;;1.50;;
35530;SDS011;21637;53.352;-6.356;2023-07-09T11:32:57;3.40;;;1.33;;
35530;SDS011;21637;53.352;-6.356;2023-07-09T11:35:27;4.18;;;1.30;;
35530;SDS011;21637;53.352;-6.356;2023-07-09T11:37:55;4.35;;;0.90;;
35530;SDS011;21637;53.352;-6.356;2023-07-09T11:40:23;6.55;;;1.10;;
35530;SDS011;21637;53.352;-6.356;2023-07-09T11:42:56;3.30;;;1.25;;
35530;SDS011;21637;53.352;-6.356;2023-07-09T11:45:33;4.43;;;1.20;;
35530;SDS011;21637;53.352;-6.356;2023-07-09T11:50:47;2.38;;;1.05;;
35530;SDS011;21637;53.352;-6.356;2023-07-09T11:56:01;3.17;;;1.08;;
35530;SDS011;21637;53.352;-6.356;2023-07-09T11:58:28;3.13;;;0.98;;
35530;SDS011;21637;53.352;-6.356;2023-07-09T12:00:54;3.13;;;0.90;;
35530;SDS011;21637;53.352;-6.356;2023-07-09T12:03:34;4.18;;;1.00;;
35530;SDS011;21637;53.352;-6.356;2023-07-09T12:06:07;3.78;;;1.30;;
35530;SDS011;21637;53.352;-6.356;2023-07-09T12:08:51;3.35;;;0.88;;
35530;SDS011;21637;53.352;-6.356;2023-07-09T12:11:42;3.30;;;0.90;;
35530;SDS011;21637;53.352;-6.356;2023-07-09T12:14:12;3.80;;;1.23;;
35530;SDS011;21637;53.352;-6.356;2023-07-09T12:16:47;4.07;;;0.95;;
35530;SDS011;21637;53.352;-6.356;2023-07-09T12:19:16;3.45;;;1.13;;
35530;SDS011;21637;53.352;-6.356;2023-07-09T12:21:45;3.83;;;1.08;;
35530;SDS011;21637;53.352;-6.356;2023-07-09T12:24:21;4.75;;;1.23;;
35530;SDS011;21637;53.352;-6.356;2023-07-09T12:26:52;2.00;;;0.77;;
35530;SDS011;21637;53.352;-6.356;2023-07-09T12:29:25;3.22;;;0.93;;
35530;SDS011;21637;53.352;-6.356;2023-07-09T12:31:52;5.45;;;1.10;;
35530;SDS011;21637;53.352;-6.356;2023-07-09T12:34:20;3.65;;;0.90;;
35530;SDS011;21637;53.352;-6.356;2023-07-09T12:36:46;2.28;;;0.80;;
35530;SDS011;21637;53.352;-6.356;2023-07-09T12:39:15;4.32;;;1.00;;
35530;SDS011;21637;53.352;-6.356;2023-07-09T12:41:48;2.58;;;0.77;;
35530;SDS011;21637;53.352;-6.356;2023-07-09T12:44:19;3.58;;;0.77;;
35530;SDS011;21637;53.352;-6.356;2023-07-09T12:46:47;3.60;;;0.77;;
35530;SDS011;21637;53.352;-6.356;2023-07-09T12:49:36;2.33;;;0.68;;
35530;SDS011;21637;53.352;-6.356;2023-07-09T12:52:09;1.73;;;0.80;;
35530;SDS011;21637;53.352;-6.356;2023-07-09T12:57:23;1.98;;;0.60;;
35530;SDS011;21637;53.352;-6.356;2023-07-09T12:59:50;3.70;;;0.63;;
35530;SDS011;21637;53.352;-6.356;2023-07-09T13:02:26;5.43;;;0.75;;
35530;SDS011;21637;53.352;-6.356;2023-07-09T13:05:01;0.93;;;0.68;;
35530;SDS011;21637;53.352;-6.356;2023-07-09T13:07:32;3.10;;;0.85;;
35530;SDS011;21637;53.352;-6.356;2023-07-09T13:10:04;4.95;;;0.88;;
35530;SDS011;21637;53.352;-6.356;2023-07-09T13:12:52;2.67;;;0.70;;
35530;SDS011;21637;53.352;-6.356;2023-07-09T13:17:58;6.20;;;0.80;;
35530;SDS011;21637;53.352;-6.356;2023-07-09T13:20:26;2.95;;;0.63;;
35530;SDS011;21637;53.352;-6.356;2023-07-09T13:22:52;3.92;;;0.80;;
35530;SDS011;21637;53.352;-6.356;2023-07-09T13:25:18;2.58;;;0.73;;
35530;SDS011;21637;53.352;-6.356;2023-07-09T13:27:44;3.65;;;0.60;;
35530;SDS011;21637;53.352;-6.356;2023-07-09T13:30:11;1.13;;;0.60;;
35530;SDS011;21637;53.352;-6.356;2023-07-09T13:32:37;3.70;;;0.70;;
35530;SDS011;21637;53.352;-6.356;2023-07-09T13:35:05;3.83;;;0.70;;
35530;SDS011;21637;53.352;-6.356;2023-07-09T13:37:39;3.92;;;0.63;;
35530;SDS011;21637;53.352;-6.356;2023-07-09T13:40:05;4.88;;;0.80;;
35530;SDS011;21637;53.352;-6.356;2023-07-09T13:42:32;2.20;;;0.70;;
35530;SDS011;21637;53.352;-6.356;2023-07-09T13:44:58;2.45;;;0.68;;
35530;SDS011;21637;53.352;-6.356;2023-07-09T13:47:23;1.45;;;0.70;;
35530;SDS011;21637;53.352;-6.356;2023-07-09T13:49:49;2.78;;;0.90;;
35530;SDS011;21637;53.352;-6.356;2023-07-09T13:52:19;1.10;;;0.60;;
35530;SDS011;21637;53.352;-6.356;2023-07-09T13:54:48;4.22;;;0.77;;
35530;SDS011;21637;53.352;-6.356;2023-07-09T13:57:15;3.92;;;0.85;;
35530;SDS011;21637;53.352;-6.356;2023-07-09T13:59:43;2.88;;;0.90;;
35530;SDS011;21637;53.352;-6.356;2023-07-09T14:04:49;3.47;;;0.80;;
35530;SDS011;21637;53.352;-6.356;2023-07-09T14:07:26;2.72;;;1.00;;
35530;SDS011;21637;53.352;-6.356;2023-07-09T14:09:52;4.32;;;0.82;;
35530;SDS011;21637;53.352;-6.356;2023-07-09T14:12:18;2.70;;;1.08;;
35530;SDS011;21637;53.352;-6.356;2023-07-09T14:14:44;2.58;;;0.70;;
35530;SDS011;21637;53.352;-6.356;2023-07-09T14:17:11;2.33;;;0.77;;
35530;SDS011;21637;53.352;-6.356;2023-07-09T14:19:38;1.60;;;0.60;;
35530;SDS011;21637;53.352;-6.356;2023-07-09T14:22:07;2.55;;;0.88;;
35530;SDS011;21637;53.352;-6.356;2023-07-09T14:24:46;3.17;;;0.90;;
35530;SDS011;21637;53.352;-6.356;2023-07-09T14:27:12;2.22;;;1.00;;
35530;SDS011;21637;53.352;-6.356;2023-07-09T14:29:37;3.70;;;0.93;;
35530;SDS011;21637;53.352;-6.356;2023-07-09T14:32:04;3.15;;;0.80;;
35530;SDS011;21637;53.352;-6.356;2023-07-09T14:34:33;2.25;;;0.70;;
35530;SDS011;21637;53.352;-6.356;2023-07-09T14:36:59;4.10;;;0.80;;
35530;SDS011;21637;53.352;-6.356;2023-07-09T14:39:26;2.47;;;0.82;;
35530;SDS011;21637;53.352;-6.356;2023-07-09T14:41:53;2.70;;;0.57;;
35530;SDS011;21637;53.352;-6.356;2023-07-09T14:44:28;4.63;;;0.70;;
35530;SDS011;21637;53.352;-6.356;2023-07-09T14:46:57;4.47;;;1.05;;
35530;SDS011;21637;53.352;-6.356;2023-07-09T14:49:24;2.25;;;1.00;;
35530;SDS011;21637;53.352;-6.356;2023-07-09T14:51:52;3.35;;;0.50;;
35530;SDS011;21637;53.352;-6.356;2023-07-09T14:54:19;2.60;;;0.90;;
35530;SDS011;21637;53.352;-6.356;2023-07-09T14:56:49;5.28;;;0.90;;
35530;SDS011;21637;53.352;-6.356;2023-07-09T14:59:16;4.43;;;1.00;;
35530;SDS011;21637;53.352;-6.356;2023-07-09T15:01:43;2.65;;;0.95;;
35530;SDS011;21637;53.352;-6.356;2023-07-09T15:06:58;1.98;;;0.80;;
35530;SDS011;21637;53.352;-6.356;2023-07-09T15:09:25;2.13;;;0.70;;
35530;SDS011;21637;53.352;-6.356;2023-07-09T15:11:53;4.25;;;0.98;;
35530;SDS011;21637;53.352;-6.356;2023-07-09T15:14:24;3.35;;;0.77;;
35530;SDS011;21637;53.352;-6.356;2023-07-09T15:16:50;4.97;;;1.05;;
35530;SDS011;21637;53.352;-6.356;2023-07-09T15:19:21;25.20;;;2.50;;
35530;SDS011;21637;53.352;-6.356;2023-07-09T15:21:48;1.92;;;0.60;;
35530;SDS011;21637;53.352;-6.356;2023-07-09T15:26:52;3.20;;;0.85;;
35530;SDS011;21637;53.352;-6.356;2023-07-09T15:29:19;1.88;;;0.80;;
35530;SDS011;21637;53.352;-6.356;2023-07-09T15:31:46;2.60;;;0.60;;
35530;SDS011;21637;53.352;-6.356;2023-07-09T15:34:12;0.65;;;0.40;;
35530;SDS011;21637;53.352;-6.356;2023-07-09T15:36:43;1.73;;;0.73;;
35530;SDS011;21637;53.352;-6.356;2023-07-09T15:39:10;2.53;;;0.80;;